createdAt,value
2018-05-09T00:00:32.061Z,16.09
2018-05-09T00:01:32.076Z,16.16
2018-05-09T00:02:32.090Z,16.13
2018-05-09T00:03:32.116Z,16.17
2018-05-09T00:04:32.221Z,16.03
2018-05-09T00:05:32.155Z,16.13
2018-05-09T00:06:32.180Z,16.13
2018-05-09T00:07:32.219Z,16.16
2018-05-09T00:08:32.231Z,16.10
2018-05-09T00:09:32.246Z,16.05
2018-05-09T00:10:32.271Z,15.98
2018-05-09T00:11:32.298Z,16.03
2018-05-09T00:12:32.313Z,16.00
2018-05-09T00:13:32.335Z,16.05
2018-05-09T00:14:32.361Z,16.02
2018-05-09T00:15:32.378Z,16.03
2018-05-09T00:16:32.402Z,15.92
2018-05-09T00:17:32.428Z,15.96
2018-05-09T00:19:32.466Z,15.91
2018-05-09T00:20:32.493Z,16.02
2018-05-09T00:21:32.514Z,15.92
2018-05-09T00:22:32.535Z,15.90
2018-05-09T00:23:32.566Z,15.90
2018-05-09T00:24:32.571Z,15.91
2018-05-09T00:25:32.597Z,15.91
2018-05-09T00:26:32.622Z,15.94
2018-05-09T00:27:32.642Z,15.83
2018-05-09T00:28:32.668Z,15.85
2018-05-09T00:29:32.689Z,15.90
2018-05-09T00:30:32.703Z,15.76
2018-05-09T00:31:32.728Z,15.85
2018-05-09T00:32:32.754Z,15.84
2018-05-09T00:33:32.768Z,15.87
2018-05-09T00:34:32.997Z,15.84
2018-05-09T00:35:32.824Z,15.78
2018-05-09T00:36:32.833Z,15.73
2018-05-09T00:37:32.858Z,15.76
2018-05-09T00:38:32.952Z,15.75
2018-05-09T00:39:32.900Z,15.83
2018-05-09T00:40:32.925Z,15.78
2018-05-09T00:41:32.951Z,15.80
2018-05-09T00:42:32.965Z,15.76
2018-05-09T00:44:33.017Z,15.78
2018-05-09T00:45:33.035Z,15.76
2018-05-09T00:46:33.056Z,15.84
2018-05-09T00:48:33.094Z,15.76
2018-05-09T00:49:33.121Z,15.83
2018-05-09T00:50:33.146Z,15.78
2018-05-09T00:51:33.161Z,15.83
2018-05-09T00:52:33.187Z,15.76
2018-05-09T00:53:33.212Z,15.81
2018-05-09T00:54:33.230Z,15.76
2018-05-09T00:55:33.255Z,15.76
2018-05-09T00:56:33.277Z,15.73
2018-05-09T00:57:33.292Z,15.83
2018-05-09T00:58:33.317Z,15.80
2018-05-09T00:59:33.343Z,15.75
2018-05-09T01:00:33.355Z,15.76
2018-05-09T01:01:33.382Z,15.73
2018-05-09T01:02:33.408Z,15.76
2018-05-09T01:03:33.425Z,15.78
2018-05-09T01:04:33.448Z,15.75
2018-05-09T01:05:33.475Z,15.81
2018-05-09T01:06:33.487Z,15.75
2018-05-09T01:07:33.513Z,15.81
2018-05-09T01:08:33.539Z,15.72
2018-05-09T01:09:33.554Z,15.81
2018-05-09T01:10:33.579Z,15.84
2018-05-09T01:11:33.605Z,15.76
2018-05-09T01:12:33.618Z,15.76
2018-05-09T01:14:33.670Z,15.75
2018-05-09T01:15:33.684Z,15.78
2018-05-09T01:16:33.710Z,15.67
2018-05-09T01:17:33.736Z,15.81
2018-05-09T01:18:33.762Z,15.81
2018-05-09T01:19:33.774Z,15.81
2018-05-09T01:20:33.801Z,15.75
2018-05-09T01:21:33.815Z,15.78
2018-05-09T01:22:33.842Z,15.66
2018-05-09T01:23:33.855Z,15.66
2018-05-09T01:24:33.880Z,15.72
2018-05-09T01:25:33.905Z,15.70
2018-05-09T01:26:33.932Z,15.72
2018-05-09T01:27:33.945Z,15.70
2018-05-09T01:28:33.971Z,15.69
2018-05-09T01:29:33.985Z,15.72
2018-05-09T01:30:34.010Z,15.69
2018-05-09T01:31:34.037Z,15.57
2018-05-09T01:32:34.050Z,15.66
2018-05-09T01:33:34.078Z,15.59
2018-05-09T01:34:34.103Z,15.50
2018-05-09T01:35:34.115Z,15.52
2018-05-09T01:37:34.167Z,15.59
2018-05-09T01:38:34.181Z,15.48
2018-05-09T01:39:34.207Z,15.45
2018-05-09T01:40:34.237Z,15.45
2018-05-09T01:41:34.246Z,15.43
2018-05-09T01:42:34.273Z,15.54
2018-05-09T01:43:34.297Z,15.48
2018-05-09T01:44:34.312Z,15.59
2018-05-09T01:45:34.338Z,15.50
2018-05-09T01:46:34.371Z,15.44
2018-05-09T01:47:34.377Z,15.51
2018-05-09T01:48:34.402Z,15.50
2018-05-09T01:49:34.419Z,15.43
2018-05-09T01:50:34.443Z,15.45
2018-05-09T01:51:34.472Z,15.41
2018-05-09T01:52:34.482Z,15.37
2018-05-09T01:53:34.509Z,15.43
2018-05-09T01:54:34.533Z,15.44
2018-05-09T01:55:34.548Z,15.30
2018-05-09T01:56:34.577Z,15.35
2018-05-09T01:57:34.600Z,15.33
2018-05-09T01:58:34.613Z,15.39
2018-05-09T01:59:34.639Z,15.35
2018-05-09T02:00:34.664Z,15.29
2018-05-09T02:01:34.678Z,15.19
2018-05-09T02:02:34.707Z,15.29
2018-05-09T02:03:34.718Z,15.30
2018-05-09T02:04:34.743Z,15.33
2018-05-09T02:05:34.769Z,15.26
2018-05-09T02:06:34.783Z,15.22
2018-05-09T02:07:34.809Z,15.14
2018-05-09T02:08:34.835Z,15.27
2018-05-09T02:09:34.848Z,15.17
2018-05-09T02:10:34.873Z,15.17
2018-05-09T02:11:34.899Z,15.19
2018-05-09T02:12:34.913Z,15.11
2018-05-09T02:13:34.939Z,15.15
2018-05-09T02:14:34.954Z,15.12
2018-05-09T02:15:34.978Z,15.10
2018-05-09T02:16:35.005Z,15.11
2018-05-09T02:17:35.027Z,15.10
2018-05-09T02:18:35.044Z,15.14
2018-05-09T02:19:35.069Z,15.00
2018-05-09T02:20:35.083Z,15.04
2018-05-09T02:21:35.109Z,15.00
2018-05-09T02:22:35.151Z,15.05
2018-05-09T02:23:35.149Z,15.00
2018-05-09T02:24:35.184Z,15.00
2018-05-09T02:25:35.190Z,14.99
2018-05-09T02:26:35.214Z,14.94
2018-05-09T02:27:35.240Z,14.96
2018-05-09T02:28:35.256Z,14.90
2018-05-09T02:29:35.280Z,14.96
2018-05-09T02:30:35.306Z,14.94
2018-05-09T02:31:35.318Z,14.87
2018-05-09T02:32:35.345Z,14.86
2018-05-09T02:33:35.361Z,14.92
2018-05-09T02:34:35.385Z,14.93
2018-05-09T02:35:35.411Z,14.94
2018-05-09T02:36:35.436Z,14.85
2018-05-09T02:37:35.450Z,14.90
2018-05-09T02:38:35.477Z,14.90
2018-05-09T02:39:35.490Z,14.86
2018-05-09T02:40:35.517Z,14.89
2018-05-09T02:41:35.529Z,14.89
2018-05-09T02:42:35.555Z,14.81
2018-05-09T02:43:35.672Z,14.86
2018-05-09T02:44:35.596Z,14.79
2018-05-09T02:45:35.623Z,14.79
2018-05-09T02:46:35.647Z,14.78
2018-05-09T02:47:35.660Z,14.78
2018-05-09T02:48:35.686Z,14.70
2018-05-09T02:49:35.701Z,14.77
2018-05-09T02:50:35.727Z,14.81
2018-05-09T02:51:35.753Z,14.74
2018-05-09T02:52:35.765Z,14.79
2018-05-09T02:53:35.794Z,14.68
2018-05-09T02:54:35.820Z,14.71
2018-05-09T02:55:35.831Z,14.74
2018-05-09T02:56:35.858Z,14.66
2018-05-09T02:57:35.883Z,14.63
2018-05-09T02:58:35.900Z,14.66
2018-05-09T02:59:35.922Z,14.67
2018-05-09T03:00:35.936Z,14.71
2018-05-09T03:01:35.964Z,14.62
2018-05-09T03:02:35.975Z,14.61
2018-05-09T03:03:36.002Z,14.61
2018-05-09T03:04:36.030Z,14.66
2018-05-09T03:05:36.040Z,14.66
2018-05-09T03:06:36.067Z,14.63
2018-05-09T03:07:36.080Z,14.66
2018-05-09T03:08:36.105Z,14.63
2018-05-09T03:09:36.131Z,14.51
2018-05-09T03:10:36.146Z,14.53
2018-05-09T03:11:36.172Z,14.59
2018-05-09T03:12:36.185Z,14.66
2018-05-09T03:13:36.211Z,14.61
2018-05-09T03:14:36.234Z,14.52
2018-05-09T03:15:36.249Z,14.58
2018-05-09T03:16:36.274Z,14.56
2018-05-09T03:17:36.301Z,14.61
2018-05-09T03:19:36.340Z,14.58
2018-05-09T03:20:36.370Z,14.58
2018-05-09T03:21:36.582Z,14.67
2018-05-09T03:22:36.415Z,14.59
2018-05-09T03:23:36.422Z,14.59
2018-05-09T03:24:36.443Z,14.56
2018-05-09T03:25:36.460Z,14.63
2018-05-09T03:26:36.490Z,14.48
2018-05-09T03:27:36.510Z,14.56
2018-05-09T03:28:36.522Z,14.58
2018-05-09T03:29:36.548Z,14.55
2018-05-09T03:30:36.564Z,14.53
2018-05-09T03:31:36.596Z,14.53
2018-05-09T03:32:36.615Z,14.58
2018-05-09T03:33:36.628Z,14.52
2018-05-09T03:34:36.696Z,14.55
2018-05-09T03:35:36.668Z,14.55
2018-05-09T03:36:36.693Z,14.48
2018-05-09T03:37:36.720Z,14.53
2018-05-09T03:38:36.735Z,14.55
2018-05-09T03:39:36.758Z,14.49
2018-05-09T03:40:36.786Z,14.62
2018-05-09T03:41:36.799Z,14.51
2018-05-09T03:42:36.824Z,14.58
2018-05-09T03:43:36.838Z,14.48
2018-05-09T03:44:36.863Z,14.56
2018-05-09T03:45:36.890Z,14.51
2018-05-09T03:46:36.903Z,14.53
2018-05-09T03:47:36.930Z,14.58
2018-05-09T03:48:36.942Z,14.52
2018-05-09T03:49:36.969Z,14.43
2018-05-09T03:50:36.995Z,14.45
2018-05-09T03:51:37.008Z,14.52
2018-05-09T03:52:37.036Z,14.45
2018-05-09T03:53:37.049Z,14.44
2018-05-09T03:54:37.075Z,14.44
2018-05-09T03:55:37.101Z,14.44
2018-05-09T03:56:37.117Z,14.41
2018-05-09T03:57:37.140Z,14.41
2018-05-09T03:58:37.153Z,14.41
2018-05-09T03:59:37.181Z,14.45
2018-05-09T04:00:37.204Z,14.45
2018-05-09T04:01:37.218Z,14.48
2018-05-09T04:02:37.248Z,14.55
2018-05-09T04:03:37.271Z,14.52
2018-05-09T04:04:37.284Z,14.43
2018-05-09T04:05:37.310Z,14.44
2018-05-09T04:06:37.324Z,14.55
2018-05-09T04:07:37.349Z,14.55
2018-05-09T04:08:37.364Z,14.56
2018-05-09T04:09:37.388Z,14.44
2018-05-09T04:10:37.472Z,14.55
2018-05-09T04:11:37.429Z,14.51
2018-05-09T04:12:37.454Z,14.56
2018-05-09T04:13:37.480Z,14.55
2018-05-09T04:14:37.493Z,14.53
2018-05-09T04:15:37.521Z,14.55
2018-05-09T04:16:37.533Z,14.52
2018-05-09T04:17:37.559Z,14.52
2018-05-09T04:18:37.585Z,14.53
2018-05-09T04:19:37.597Z,14.56
2018-05-09T04:20:37.677Z,14.48
2018-05-09T04:21:37.638Z,14.53
2018-05-09T04:22:37.664Z,14.63
2018-05-09T04:23:37.690Z,14.68
2018-05-09T04:24:37.706Z,14.58
2018-05-09T04:25:37.730Z,14.61
2018-05-09T04:26:37.755Z,14.66
2018-05-09T04:27:37.769Z,14.52
2018-05-09T04:28:37.795Z,14.71
2018-05-09T04:29:37.808Z,14.63
2018-05-09T04:31:37.860Z,14.74
2018-05-09T04:32:37.873Z,14.67
2018-05-09T04:33:37.900Z,14.78
2018-05-09T04:34:37.913Z,14.86
2018-05-09T04:35:37.938Z,14.74
2018-05-09T04:37:37.979Z,14.82
2018-05-09T04:38:38.004Z,14.89
2018-05-09T04:39:38.032Z,14.86
2018-05-09T04:40:38.044Z,14.92
2018-05-09T04:41:38.071Z,14.89
2018-05-09T04:42:38.100Z,14.93
2018-05-09T04:43:38.110Z,14.90
2018-05-09T04:44:38.135Z,14.99
2018-05-09T04:45:38.148Z,14.93
2018-05-09T04:46:38.174Z,14.90
2018-05-09T04:47:38.200Z,14.89
2018-05-09T04:48:38.214Z,14.94
2018-05-09T04:49:38.239Z,14.92
2018-05-09T04:50:38.265Z,14.92
2018-05-09T04:51:38.291Z,15.02
2018-05-09T04:52:38.303Z,15.02
2018-05-09T04:53:38.318Z,15.02
2018-05-09T04:54:38.343Z,15.02
2018-05-09T04:55:38.398Z,15.07
2018-05-09T04:56:38.382Z,15.07
2018-05-09T04:57:38.408Z,15.07
2018-05-09T04:58:38.437Z,15.12
2018-05-09T04:59:38.650Z,15.10
2018-05-09T05:00:38.478Z,15.11
2018-05-09T05:01:38.488Z,15.15
2018-05-09T05:02:38.513Z,15.14
2018-05-09T05:03:38.538Z,15.19
2018-05-09T05:04:38.554Z,15.22
2018-05-09T05:05:38.579Z,15.22
2018-05-09T05:06:38.605Z,15.14
2018-05-09T05:07:38.622Z,15.27
2018-05-09T05:08:38.643Z,15.26
2018-05-09T05:09:38.669Z,15.30
2018-05-09T05:10:38.689Z,15.35
2018-05-09T05:11:38.713Z,15.27
2018-05-09T05:12:38.736Z,15.33
2018-05-09T05:13:38.749Z,15.33
2018-05-09T05:14:38.774Z,15.35
2018-05-09T05:15:38.814Z,15.41
2018-05-09T05:16:38.815Z,15.45
2018-05-09T05:17:38.839Z,15.54
2018-05-09T05:18:38.865Z,15.54
2018-05-09T05:19:38.883Z,15.52
2018-05-09T05:20:38.905Z,15.57
2018-05-09T05:21:38.932Z,15.59
2018-05-09T05:22:38.945Z,15.66
2018-05-09T05:23:38.971Z,15.65
2018-05-09T05:24:38.996Z,15.70
2018-05-09T05:25:39.010Z,15.67
2018-05-09T05:26:39.036Z,15.76
2018-05-09T05:27:39.050Z,15.80
2018-05-09T05:28:39.077Z,15.90
2018-05-09T05:29:39.103Z,15.90
2018-05-09T05:30:39.129Z,15.94
2018-05-09T05:32:39.174Z,15.94
2018-05-09T05:33:39.194Z,16.06
2018-05-09T05:34:39.212Z,16.00
2018-05-09T05:35:39.233Z,16.06
2018-05-09T05:36:39.258Z,16.10
2018-05-09T05:37:39.271Z,16.18
2018-05-09T05:38:39.298Z,16.13
2018-05-09T05:39:39.325Z,16.25
2018-05-09T05:40:39.349Z,16.26
2018-05-09T05:41:39.365Z,16.37
2018-05-09T05:42:39.389Z,16.34
2018-05-09T05:43:39.402Z,16.34
2018-05-09T05:44:39.429Z,16.46
2018-05-09T05:45:39.454Z,16.44
2018-05-09T05:46:39.480Z,16.57
2018-05-09T05:47:39.495Z,16.59
2018-05-09T05:48:39.522Z,16.57
2018-05-09T05:49:39.547Z,16.64
2018-05-09T05:50:39.562Z,16.64
2018-05-09T05:51:39.587Z,16.69
2018-05-09T05:52:39.611Z,16.79
2018-05-09T05:53:39.637Z,16.80
2018-05-09T05:54:39.653Z,16.84
2018-05-09T05:55:39.681Z,16.92
2018-05-09T05:56:39.706Z,16.94
2018-05-09T05:57:39.716Z,16.98
2018-05-09T05:58:39.743Z,16.94
2018-05-09T05:59:39.768Z,17.01
2018-05-09T06:00:39.783Z,17.09
2018-05-09T06:01:39.810Z,17.22
2018-05-09T06:02:39.834Z,17.16
2018-05-09T06:03:39.860Z,17.31
2018-05-09T06:04:39.879Z,17.34
2018-05-09T06:05:39.900Z,17.46
2018-05-09T06:06:39.930Z,17.42
2018-05-09T06:07:39.951Z,17.46
2018-05-09T06:08:39.965Z,17.54
2018-05-09T06:09:39.992Z,17.53
2018-05-09T06:10:40.018Z,17.50
2018-05-09T06:11:40.051Z,17.63
2018-05-09T06:12:40.069Z,17.76
2018-05-09T06:13:40.082Z,17.79
2018-05-09T06:14:40.109Z,17.87
2018-05-09T06:15:40.135Z,17.86
2018-05-09T06:16:40.160Z,18.00
2018-05-09T06:17:40.174Z,18.19
2018-05-09T06:18:40.200Z,18.27
2018-05-09T06:19:40.227Z,18.24
2018-05-09T06:20:40.253Z,18.36
2018-05-09T06:21:40.279Z,18.48
2018-05-09T06:22:40.304Z,18.53
2018-05-09T06:23:40.317Z,18.66
2018-05-09T06:24:40.356Z,18.81
2018-05-09T06:25:40.369Z,18.91
2018-05-09T06:26:40.395Z,19.08
2018-05-09T06:27:40.422Z,19.27
2018-05-09T06:28:40.448Z,19.30
2018-05-09T06:29:40.472Z,19.55
2018-05-09T06:30:40.511Z,19.70
2018-05-09T06:31:40.523Z,19.87
2018-05-09T06:32:40.538Z,20.11
2018-05-09T06:33:40.565Z,20.22
2018-05-09T06:34:40.590Z,20.46
2018-05-09T06:35:40.616Z,20.66
2018-05-09T06:36:40.642Z,20.82
2018-05-09T06:37:40.733Z,21.07
2018-05-09T06:38:40.694Z,21.20
2018-05-09T06:39:40.720Z,21.44
2018-05-09T06:40:40.758Z,21.60
2018-05-09T06:41:40.818Z,21.75
2018-05-09T06:42:40.809Z,22.00
2018-05-09T06:43:40.923Z,22.16
2018-05-09T06:44:40.861Z,22.38
2018-05-09T06:45:40.898Z,22.47
2018-05-09T06:46:40.916Z,22.65
2018-05-09T06:47:41.143Z,22.77
2018-05-09T06:48:41.329Z,22.95
2018-05-09T06:49:41.004Z,23.10
2018-05-09T06:50:41.031Z,23.21
2018-05-09T06:51:41.057Z,23.39
2018-05-09T06:52:41.094Z,23.45
2018-05-09T06:53:41.122Z,23.55
2018-05-09T06:54:41.151Z,23.74
2018-05-09T06:55:41.172Z,23.92
2018-05-09T06:56:41.211Z,24.07
2018-05-09T06:57:41.237Z,24.10
2018-05-09T06:58:41.264Z,24.24
2018-05-09T06:59:41.341Z,24.40
2018-05-09T07:00:41.330Z,24.43
2018-05-09T07:01:41.352Z,24.62
2018-05-09T07:02:41.426Z,24.66
2018-05-09T07:03:41.418Z,24.85
2018-05-09T07:04:41.446Z,24.82
2018-05-09T07:05:41.834Z,25.01
2018-05-09T07:06:41.718Z,25.16
2018-05-09T07:07:41.535Z,25.30
2018-05-09T07:08:41.574Z,25.25
2018-05-09T07:09:41.599Z,25.33
2018-05-09T07:10:41.672Z,25.37
2018-05-09T07:11:41.662Z,25.54
2018-05-09T07:12:41.690Z,25.70
2018-05-09T07:13:41.727Z,25.71
2018-05-09T07:14:41.753Z,25.85
2018-05-09T07:15:41.780Z,25.89
2018-05-09T07:16:41.818Z,25.88
2018-05-09T07:17:41.843Z,25.91
2018-05-09T07:18:41.882Z,25.93
2018-05-09T07:19:41.909Z,26.08
2018-05-09T07:20:41.946Z,26.23
2018-05-09T07:21:41.972Z,26.27
2018-05-09T07:22:42.011Z,26.31
2018-05-09T07:23:42.037Z,26.30
2018-05-09T07:24:42.075Z,26.34
2018-05-09T07:25:42.101Z,26.41
2018-05-09T07:26:42.143Z,26.42
2018-05-09T07:27:42.165Z,26.55
2018-05-09T07:28:42.208Z,26.53
2018-05-09T07:29:42.229Z,26.63
2018-05-09T07:30:42.269Z,26.74
2018-05-09T07:31:42.299Z,26.82
2018-05-09T07:32:42.333Z,26.82
2018-05-09T07:33:42.372Z,26.85
2018-05-09T07:34:42.417Z,26.73
2018-05-09T07:35:42.435Z,26.85
2018-05-09T07:37:42.504Z,26.96
2018-05-09T07:38:42.527Z,27.08
2018-05-09T07:39:42.564Z,27.11
2018-05-09T07:40:42.603Z,27.13
2018-05-09T07:41:42.630Z,27.26
2018-05-09T07:43:42.693Z,27.26
2018-05-09T07:44:42.732Z,27.30
2018-05-09T07:45:42.773Z,27.35
2018-05-09T07:46:42.796Z,27.45
2018-05-09T07:47:42.894Z,27.52
2018-05-09T07:48:42.886Z,27.52
2018-05-09T07:50:42.938Z,27.60
2018-05-09T07:51:42.976Z,27.44
2018-05-09T07:52:43.052Z,27.44
2018-05-09T07:53:43.041Z,27.38
2018-05-09T07:54:43.080Z,27.34
2018-05-09T07:55:43.105Z,27.48
2018-05-09T07:56:43.145Z,27.40
2018-05-09T07:57:43.182Z,27.37
2018-05-09T07:58:43.208Z,27.52
2018-05-09T07:59:43.247Z,27.44
2018-05-09T08:00:43.286Z,27.63
2018-05-09T08:01:43.324Z,27.73
2018-05-09T08:02:43.349Z,27.76
2018-05-09T08:03:43.388Z,27.73
2018-05-09T08:04:43.427Z,27.68
2018-05-09T08:05:43.453Z,27.61
2018-05-09T08:07:43.529Z,27.64
2018-05-09T08:08:43.573Z,27.63
2018-05-09T08:09:43.595Z,27.66
2018-05-09T08:10:43.632Z,27.75
2018-05-09T08:11:43.672Z,27.79
2018-05-09T08:12:43.915Z,27.86
2018-05-09T08:13:43.751Z,27.85
2018-05-09T08:14:43.774Z,27.94
2018-05-09T08:15:43.817Z,27.94
2018-05-09T08:17:44.367Z,27.83
2018-05-09T08:18:43.917Z,27.82
2018-05-09T08:19:43.956Z,27.76
2018-05-09T08:21:44.032Z,27.68
2018-05-09T08:22:44.058Z,27.50
2018-05-09T08:23:44.153Z,27.47
2018-05-09T08:24:44.134Z,27.40
2018-05-09T08:25:44.162Z,27.29
2018-05-09T08:26:44.200Z,27.10
2018-05-09T08:27:44.238Z,27.00
2018-05-09T08:29:44.303Z,26.83
2018-05-09T08:30:44.535Z,26.70
2018-05-09T08:31:44.365Z,26.55
2018-05-09T08:32:44.392Z,26.51
2018-05-09T08:33:44.431Z,26.41
2018-05-09T08:34:44.458Z,26.41
2018-05-09T08:35:44.496Z,26.29
2018-05-09T08:36:44.587Z,26.18
2018-05-09T08:37:44.560Z,26.11
2018-05-09T08:38:44.587Z,26.08
2018-05-09T08:39:44.624Z,26.06
2018-05-09T08:40:44.651Z,25.99
2018-05-09T08:41:44.689Z,25.92
2018-05-09T08:42:44.917Z,25.88
2018-05-09T08:43:44.787Z,25.86
2018-05-09T08:44:44.779Z,25.80
2018-05-09T08:45:44.805Z,25.83
2018-05-09T08:46:44.847Z,25.78
2018-05-09T08:47:45.073Z,25.74
2018-05-09T08:48:44.907Z,25.74
2018-05-09T08:49:44.945Z,25.76
2018-05-09T08:50:44.960Z,25.74
2018-05-09T08:51:44.999Z,25.78
2018-05-09T08:52:45.028Z,25.70
2018-05-09T08:53:45.062Z,25.63
2018-05-09T08:54:45.093Z,25.68
2018-05-09T08:55:45.114Z,25.67
2018-05-09T08:56:45.156Z,25.62
2018-05-09T08:57:45.187Z,25.51
2018-05-09T08:58:45.217Z,25.59
2018-05-09T08:59:45.244Z,25.58
2018-05-09T09:00:45.269Z,25.52
2018-05-09T09:01:45.308Z,25.52
2018-05-09T09:02:45.335Z,25.54
2018-05-09T09:03:45.365Z,25.55
2018-05-09T09:04:45.399Z,25.55
2018-05-09T09:05:45.424Z,25.56
2018-05-09T09:06:45.464Z,25.61
2018-05-09T09:07:45.489Z,25.55
2018-05-09T09:08:45.516Z,25.55
2018-05-09T09:09:45.552Z,25.61
2018-05-09T09:10:45.647Z,25.62
2018-05-09T09:11:45.605Z,25.71
2018-05-09T09:12:45.643Z,25.68
2018-05-09T09:13:45.681Z,25.74
2018-05-09T09:14:45.720Z,25.74
2018-05-09T09:15:45.830Z,25.74
2018-05-09T09:16:45.772Z,25.78
2018-05-09T09:17:45.798Z,25.80
2018-05-09T09:18:45.871Z,25.77
2018-05-09T09:19:46.075Z,25.77
2018-05-09T09:20:45.896Z,25.85
2018-05-09T09:21:45.928Z,25.85
2018-05-09T09:22:45.954Z,25.81
2018-05-09T09:23:45.991Z,25.91
2018-05-09T09:24:46.019Z,25.93
2018-05-09T09:25:46.059Z,25.95
2018-05-09T09:26:46.286Z,25.96
2018-05-09T09:27:46.121Z,25.99
2018-05-09T09:28:46.145Z,25.99
2018-05-09T09:29:46.187Z,26.11
2018-05-09T09:30:46.211Z,26.08
2018-05-09T09:31:46.250Z,26.06
2018-05-09T09:32:46.286Z,26.16
2018-05-09T09:33:46.314Z,26.23
2018-05-09T09:34:46.341Z,26.27
2018-05-09T09:35:46.378Z,26.23
2018-05-09T09:36:46.607Z,26.30
2018-05-09T09:37:46.443Z,26.34
2018-05-09T09:38:46.481Z,26.39
2018-05-09T09:39:46.507Z,26.34
2018-05-09T09:40:46.747Z,26.44
2018-05-09T09:41:46.572Z,26.42
2018-05-09T09:42:46.609Z,26.45
2018-05-09T09:43:46.649Z,26.55
2018-05-09T09:44:46.675Z,26.63
2018-05-09T09:45:46.713Z,26.64
2018-05-09T09:47:46.777Z,26.71
2018-05-09T09:48:46.815Z,26.79
2018-05-09T09:49:47.057Z,26.93
2018-05-09T09:50:46.946Z,27.23
2018-05-09T09:51:46.918Z,27.34
2018-05-09T09:52:46.957Z,27.47
2018-05-09T09:53:46.996Z,27.44
2018-05-09T09:54:47.069Z,27.73
2018-05-09T09:55:47.060Z,27.76
2018-05-09T09:56:47.101Z,27.90
2018-05-09T09:57:47.142Z,28.01
2018-05-09T09:58:47.175Z,28.18
2018-05-09T09:59:47.403Z,28.23
2018-05-09T10:00:47.239Z,28.31
2018-05-09T10:01:47.277Z,28.43
2018-05-09T10:02:47.317Z,28.50
2018-05-09T10:03:47.342Z,28.65
2018-05-09T10:05:47.419Z,28.70
2018-05-09T10:06:47.457Z,28.74
2018-05-09T10:07:47.497Z,28.80
2018-05-09T10:08:47.535Z,28.96
2018-05-09T10:09:47.560Z,29.07
2018-05-09T10:10:47.599Z,29.18
2018-05-09T10:11:47.646Z,29.42
2018-05-09T10:12:48.426Z,29.64
2018-05-09T10:14:47.751Z,29.92
2018-05-09T10:16:48.029Z,30.52
2018-05-09T10:17:47.866Z,30.73
2018-05-09T10:18:48.110Z,30.89
2018-05-09T10:19:47.944Z,31.08
2018-05-09T10:20:47.982Z,31.14
2018-05-09T10:21:48.033Z,31.30
2018-05-09T10:22:48.071Z,31.48
2018-05-09T10:23:48.112Z,31.59
2018-05-09T10:24:48.148Z,31.69
2018-05-09T10:25:48.186Z,32.00
2018-05-09T10:26:48.229Z,32.27
2018-05-09T10:27:48.274Z,32.51
2018-05-09T10:28:48.315Z,32.60
2018-05-09T10:29:48.353Z,32.73
2018-05-09T10:30:48.439Z,32.81
2018-05-09T10:31:48.429Z,32.91
2018-05-09T10:32:48.468Z,33.03
2018-05-09T10:33:48.870Z,33.17
2018-05-09T10:34:48.557Z,33.45
2018-05-09T10:35:48.596Z,33.75
2018-05-09T10:36:48.634Z,33.89
2018-05-09T10:37:48.684Z,33.94
2018-05-09T10:38:48.723Z,34.09
2018-05-09T10:39:48.795Z,34.38
2018-05-09T10:40:48.812Z,34.47
2018-05-09T10:41:48.853Z,34.60
2018-05-09T10:42:48.890Z,34.73
2018-05-09T10:43:48.929Z,34.93
2018-05-09T10:44:48.979Z,35.00
2018-05-09T10:45:49.019Z,35.25
2018-05-09T10:46:49.056Z,35.32
2018-05-09T10:47:49.108Z,35.39
2018-05-09T10:48:49.146Z,35.34
2018-05-09T10:49:49.185Z,35.41
2018-05-09T10:50:49.240Z,35.54
2018-05-09T10:51:49.273Z,35.74
2018-05-09T10:52:49.312Z,35.79
2018-05-09T10:53:49.363Z,36.00
2018-05-09T10:54:49.400Z,36.14
2018-05-09T10:55:49.454Z,36.39
2018-05-09T10:56:49.496Z,36.43
2018-05-09T10:57:49.528Z,36.53
2018-05-09T10:58:49.583Z,36.59
2018-05-09T10:59:49.619Z,36.54
2018-05-09T11:00:49.685Z,36.53
2018-05-09T11:01:49.910Z,36.72
2018-05-09T11:02:49.949Z,36.72
2018-05-09T11:03:49.797Z,36.73
2018-05-09T11:05:49.874Z,36.82
2018-05-09T11:06:49.925Z,36.92
2018-05-09T11:08:50.026Z,36.87
2018-05-09T11:09:50.053Z,36.75
2018-05-09T11:11:50.491Z,36.87
2018-05-09T11:12:50.181Z,36.97
2018-05-09T11:13:50.233Z,37.14
2018-05-09T11:14:50.273Z,37.06
2018-05-09T11:15:50.313Z,37.15
2018-05-09T11:16:50.359Z,37.21
2018-05-09T11:17:50.397Z,37.34
2018-05-09T11:18:50.448Z,37.40
2018-05-09T11:19:50.487Z,37.54
2018-05-09T11:20:50.529Z,37.66
2018-05-09T11:22:50.614Z,38.01
2018-05-09T11:23:50.667Z,37.94
2018-05-09T11:24:50.708Z,38.02
2018-05-09T11:25:50.742Z,37.98
2018-05-09T11:26:50.793Z,37.95
2018-05-09T11:27:50.835Z,38.00
2018-05-09T11:28:50.929Z,37.97
2018-05-09T11:29:50.922Z,37.86
2018-05-09T11:30:50.982Z,37.98
2018-05-09T11:31:51.010Z,37.85
2018-05-09T11:32:51.050Z,37.97
2018-05-09T11:33:51.100Z,37.98
2018-05-09T11:34:51.138Z,38.10
2018-05-09T11:35:51.178Z,38.10
2018-05-09T11:36:51.228Z,38.22
2018-05-09T11:37:51.266Z,38.17
2018-05-09T11:38:51.318Z,38.00
2018-05-09T11:39:51.357Z,37.75
2018-05-09T11:40:51.394Z,37.48
2018-05-09T11:41:51.456Z,37.18
2018-05-09T11:42:51.484Z,37.03
2018-05-09T11:43:51.522Z,36.75
2018-05-09T11:44:51.624Z,36.35
2018-05-09T11:45:51.613Z,36.24
2018-05-09T11:46:51.651Z,36.06
2018-05-09T11:47:51.690Z,35.81
2018-05-09T11:48:51.727Z,35.57
2018-05-09T11:49:51.767Z,35.44
2018-05-09T11:50:51.804Z,35.32
2018-05-09T11:51:51.858Z,35.01
2018-05-09T11:52:51.893Z,34.89
2018-05-09T11:53:51.932Z,34.75
2018-05-09T11:54:51.971Z,34.71
2018-05-09T11:55:51.998Z,34.47
2018-05-09T11:56:52.036Z,34.24
2018-05-09T11:57:52.278Z,34.21
2018-05-09T11:58:52.115Z,34.18
2018-05-09T11:59:52.356Z,34.10
2018-05-09T12:01:52.430Z,34.25
2018-05-09T12:03:52.304Z,34.32
2018-05-09T12:04:52.342Z,34.46
2018-05-09T12:05:52.381Z,34.48
2018-05-09T12:06:52.420Z,34.47
2018-05-09T12:07:52.459Z,34.35
2018-05-09T12:08:52.496Z,34.14
2018-05-09T12:09:52.538Z,34.07
2018-05-09T12:10:52.631Z,33.85
2018-05-09T12:11:52.614Z,33.76
2018-05-09T12:12:52.667Z,33.79
2018-05-09T12:13:52.689Z,33.72
2018-05-09T12:14:52.716Z,33.69
2018-05-09T12:15:52.756Z,33.58
2018-05-09T12:16:52.797Z,33.38
2018-05-09T12:18:52.870Z,33.28
2018-05-09T12:19:52.908Z,33.23
2018-05-09T12:20:52.946Z,33.23
2018-05-09T12:21:52.986Z,33.36
2018-05-09T12:22:53.010Z,33.47
2018-05-09T12:23:53.049Z,33.48
2018-05-09T12:24:53.289Z,33.55
2018-05-09T12:25:53.127Z,33.70
2018-05-09T12:27:53.203Z,33.76
2018-05-09T12:28:53.241Z,33.97
2018-05-09T12:29:53.292Z,33.98
2018-05-09T12:30:53.317Z,34.16
2018-05-09T12:31:53.356Z,34.32
2018-05-09T12:32:53.397Z,34.51
2018-05-09T12:33:53.434Z,34.71
2018-05-09T12:34:53.474Z,34.76
2018-05-09T12:35:53.510Z,34.78
2018-05-09T12:36:53.548Z,34.93
2018-05-09T12:37:53.590Z,34.97
2018-05-09T12:38:53.625Z,34.75
2018-05-09T12:39:53.664Z,34.94
2018-05-09T12:40:53.718Z,35.05
2018-05-09T12:41:53.744Z,35.10
2018-05-09T12:42:53.779Z,35.26
2018-05-09T12:43:53.819Z,35.42
2018-05-09T12:44:53.856Z,35.54
2018-05-09T12:45:53.903Z,35.57
2018-05-09T12:46:53.934Z,35.72
2018-05-09T12:47:53.972Z,35.71
2018-05-09T12:48:54.127Z,35.74
2018-05-09T12:49:54.060Z,35.68
2018-05-09T12:50:54.103Z,35.68
2018-05-09T12:51:54.140Z,35.53
2018-05-09T12:52:54.525Z,35.49
2018-05-09T12:53:54.214Z,35.52
2018-05-09T12:54:54.254Z,35.61
2018-05-09T12:55:54.305Z,35.66
2018-05-09T12:56:54.679Z,35.82
2018-05-09T12:57:54.367Z,35.96
2018-05-09T12:58:54.407Z,36.06
2018-05-09T12:59:54.446Z,36.25
2018-05-09T13:00:54.484Z,36.50
2018-05-09T13:01:54.535Z,36.57
2018-05-09T13:02:54.573Z,36.73
2018-05-09T13:03:54.612Z,36.92
2018-05-09T13:04:54.650Z,36.76
2018-05-09T13:05:54.689Z,36.75
2018-05-09T13:06:54.727Z,36.76
2018-05-09T13:07:54.824Z,36.81
2018-05-09T13:08:54.821Z,36.82
2018-05-09T13:09:54.855Z,36.82
2018-05-09T13:10:54.893Z,36.72
2018-05-09T13:11:54.935Z,36.80
2018-05-09T13:12:54.982Z,36.88
2018-05-09T13:13:55.021Z,36.88
2018-05-09T13:14:55.059Z,36.91
2018-05-09T13:15:55.101Z,36.70
2018-05-09T13:16:55.136Z,36.48
2018-05-09T13:17:55.188Z,36.35
2018-05-09T13:18:55.226Z,36.18
2018-05-09T13:19:55.264Z,36.20
2018-05-09T13:20:55.303Z,36.11